createdAt,value
2019-05-20T00:01:11.253Z,18.29
2019-05-20T00:06:12.970Z,18.25
2019-05-20T00:11:16.935Z,18.22
2019-05-20T00:16:18.648Z,18.20
2019-05-20T00:21:20.223Z,18.16
2019-05-20T00:26:22.054Z,18.08
2019-05-20T00:31:23.984Z,18.03
2019-05-20T00:36:25.668Z,17.95
2019-05-20T00:41:27.249Z,17.91
2019-05-20T00:46:30.765Z,17.99
2019-05-20T00:51:32.420Z,18.03
2019-05-20T00:56:34.886Z,18.03
2019-05-20T01:01:36.448Z,18.02
2019-05-20T01:06:38.110Z,17.97
2019-05-20T01:11:39.689Z,17.95
2019-05-20T01:16:41.244Z,17.91
2019-05-20T01:21:42.776Z,17.85
2019-05-20T01:26:44.340Z,17.68
2019-05-20T01:31:45.905Z,17.68
2019-05-20T01:36:47.582Z,17.63
2019-05-20T01:41:49.133Z,17.56
2019-05-20T01:46:50.718Z,17.35
2019-05-20T01:51:52.260Z,17.22
2019-05-20T01:56:53.910Z,17.19
2019-05-20T02:01:55.487Z,17.25
2019-05-20T02:06:57.153Z,17.21
2019-05-20T02:11:58.710Z,17.08
2019-05-20T02:17:02.643Z,16.98
2019-05-20T02:22:03.745Z,16.80
2019-05-20T02:27:05.393Z,16.68
2019-05-20T02:32:06.929Z,16.48
2019-05-20T02:37:08.510Z,16.43
2019-05-20T02:42:10.050Z,16.34
2019-05-20T02:47:11.604Z,16.36
2019-05-20T02:52:13.154Z,16.46
2019-05-20T02:57:14.733Z,16.38
2019-05-20T03:02:16.276Z,16.38
2019-05-20T03:07:17.836Z,16.32
2019-05-20T03:12:19.499Z,16.30
2019-05-20T03:17:21.056Z,16.28
2019-05-20T03:22:22.622Z,16.23
2019-05-20T03:27:24.194Z,16.17
2019-05-20T03:32:25.852Z,16.27
2019-05-20T03:37:27.419Z,16.31
2019-05-20T03:42:28.969Z,16.37
2019-05-20T03:47:30.646Z,16.43
2019-05-20T03:52:32.249Z,16.46
2019-05-20T03:57:33.803Z,16.46
2019-05-20T04:02:35.353Z,16.38
2019-05-20T04:07:36.962Z,16.30
2019-05-20T04:12:38.503Z,16.20
2019-05-20T04:17:40.141Z,16.18
2019-05-20T04:22:41.718Z,16.26
2019-05-20T04:27:43.432Z,16.32
2019-05-20T04:32:45.058Z,16.34
2019-05-20T04:37:46.608Z,16.36
2019-05-20T04:42:48.172Z,16.48
2019-05-20T04:47:49.752Z,16.68
2019-05-20T04:52:51.441Z,16.71
2019-05-20T04:57:53.009Z,16.74
2019-05-20T05:02:54.607Z,16.78
2019-05-20T05:07:56.289Z,16.76
2019-05-20T05:12:57.948Z,16.78
2019-05-20T05:17:59.636Z,16.78
2019-05-20T05:23:01.305Z,16.75
2019-05-20T05:28:02.972Z,16.70
2019-05-20T05:33:04.543Z,16.57
2019-05-20T05:38:06.360Z,16.57
2019-05-20T05:43:08.027Z,16.64
2019-05-20T05:48:09.837Z,16.76
2019-05-20T05:53:11.401Z,16.89
2019-05-20T05:58:13.011Z,16.96
2019-05-20T06:03:14.652Z,16.99
2019-05-20T06:08:16.197Z,17.04
2019-05-20T06:13:17.784Z,17.20
2019-05-20T06:18:19.487Z,17.20
2019-05-20T06:23:21.164Z,17.29
2019-05-20T06:28:22.846Z,17.48
2019-05-20T06:33:24.411Z,17.67
2019-05-20T06:38:43.422Z,17.85
2019-05-20T06:43:45.058Z,18.01
2019-05-20T06:48:46.800Z,18.24
2019-05-20T06:53:48.502Z,18.37
2019-05-20T06:58:50.226Z,18.54
2019-05-20T07:03:51.823Z,18.79
2019-05-20T07:08:53.527Z,19.17
2019-05-20T07:13:55.107Z,19.40
2019-05-20T07:18:56.693Z,19.57
2019-05-20T07:23:58.293Z,19.61
2019-05-20T07:28:59.893Z,19.62
2019-05-20T07:34:01.601Z,19.53
2019-05-20T07:39:05.277Z,19.38
2019-05-20T07:44:06.886Z,19.30
2019-05-20T07:49:09.079Z,19.30
2019-05-20T07:54:11.295Z,19.28
2019-05-20T07:59:14.676Z,19.25
2019-05-20T08:04:16.462Z,19.33
2019-05-20T08:09:18.050Z,19.45
2019-05-20T08:14:19.755Z,19.61
2019-05-20T08:19:24.057Z,19.58
2019-05-20T08:24:25.766Z,19.55
2019-05-20T08:29:27.490Z,19.54
2019-05-20T08:34:29.330Z,19.61
2019-05-20T08:39:31.032Z,19.71
2019-05-20T08:44:32.683Z,19.85
2019-05-20T08:49:34.715Z,20.09
2019-05-20T08:54:40.144Z,20.45
2019-05-20T08:59:40.169Z,20.95
2019-05-20T09:04:41.741Z,21.21
2019-05-20T09:09:43.318Z,21.21
2019-05-20T09:14:44.987Z,21.20
2019-05-20T09:19:47.178Z,21.22
2019-05-20T09:24:49.459Z,21.35
2019-05-20T09:29:51.273Z,21.56
2019-05-20T09:34:53.337Z,21.74
2019-05-20T09:39:55.019Z,21.77
2019-05-20T09:44:56.718Z,21.86
2019-05-20T09:49:58.425Z,22.02
2019-05-20T09:55:00.026Z,22.13
2019-05-20T10:00:01.999Z,22.15
2019-05-20T10:05:04.247Z,22.20
2019-05-20T10:10:06.116Z,22.29
2019-05-20T10:15:08.735Z,22.34
2019-05-20T10:20:10.816Z,22.40
2019-05-20T10:25:12.578Z,22.47
2019-05-20T10:30:15.552Z,22.52
2019-05-20T10:35:17.298Z,22.62
2019-05-20T10:40:19.048Z,22.59
2019-05-20T10:45:20.630Z,22.68
2019-05-20T10:50:22.159Z,22.83
2019-05-20T10:55:23.722Z,23.06
2019-05-20T11:00:25.486Z,23.26
2019-05-20T11:05:27.122Z,23.32
2019-05-20T11:10:28.698Z,23.21
2019-05-20T11:15:30.338Z,23.06
2019-05-20T11:20:31.906Z,23.00
2019-05-20T11:25:33.726Z,22.89
2019-05-20T11:30:35.277Z,22.77
2019-05-20T11:35:36.982Z,22.66
2019-05-20T11:40:38.822Z,22.44
2019-05-20T11:45:40.379Z,22.17
2019-05-20T11:50:41.930Z,21.91
2019-05-20T11:55:43.477Z,21.71
2019-05-20T12:00:45.059Z,21.63
2019-05-20T12:05:46.608Z,21.71
2019-05-20T12:10:48.143Z,21.89
2019-05-20T12:15:49.688Z,21.71
2019-05-20T12:20:51.259Z,21.36
2019-05-20T12:25:52.935Z,21.11
2019-05-20T12:30:55.230Z,20.88
2019-05-20T12:35:56.782Z,20.82
2019-05-20T12:40:58.333Z,20.82
2019-05-20T12:45:59.913Z,21.15
2019-05-20T12:51:01.547Z,22.25
2019-05-20T12:56:03.346Z,22.55
2019-05-20T13:01:05.001Z,23.04
2019-05-20T13:06:06.540Z,23.00
2019-05-20T13:11:08.199Z,22.83
2019-05-20T13:16:09.849Z,22.92
2019-05-20T13:21:11.618Z,23.18
2019-05-20T13:26:13.233Z,23.32
2019-05-20T13:31:14.914Z,24.89
2019-05-20T13:36:16.471Z,24.20
2019-05-20T13:41:18.134Z,23.98
2019-05-20T13:46:19.704Z,23.17
2019-05-20T13:51:21.262Z,22.69
2019-05-20T13:56:22.812Z,22.82
2019-05-20T14:01:24.525Z,23.69
2019-05-20T14:06:26.086Z,25.57
2019-05-20T14:11:34.702Z,26.46
2019-05-20T14:16:31.081Z,28.07
2019-05-20T14:21:32.752Z,26.90
2019-05-20T14:26:34.403Z,26.41
2019-05-20T14:31:36.082Z,24.93
2019-05-20T14:36:40.193Z,25.00
2019-05-20T14:41:41.187Z,24.41
2019-05-20T14:46:42.769Z,23.91
2019-05-20T14:51:44.342Z,23.28
2019-05-20T14:56:45.917Z,22.95
2019-05-20T15:01:47.528Z,23.00
2019-05-20T15:06:49.306Z,22.97
2019-05-20T15:11:50.970Z,23.71
2019-05-20T15:16:52.620Z,24.00
2019-05-20T15:21:54.324Z,25.55
2019-05-20T15:26:56.188Z,27.61
2019-05-20T15:31:57.771Z,27.05
2019-05-20T15:36:59.919Z,24.53
2019-05-20T15:42:01.713Z,23.54
2019-05-20T15:47:03.598Z,22.62
2019-05-20T15:52:05.286Z,21.96
2019-05-20T15:57:06.838Z,21.53
2019-05-20T16:02:08.589Z,21.26
2019-05-20T16:07:11.706Z,21.12
2019-05-20T16:12:13.397Z,21.07
2019-05-20T16:17:15.068Z,21.03
2019-05-20T16:22:16.731Z,21.01
2019-05-20T16:27:18.377Z,20.98
2019-05-20T16:32:19.944Z,20.99
2019-05-20T16:37:21.522Z,21.03
2019-05-20T16:42:23.175Z,21.06
2019-05-20T16:47:24.887Z,21.09
2019-05-20T16:52:26.444Z,21.13
2019-05-20T16:57:28.183Z,21.02
2019-05-20T17:02:29.926Z,20.81
2019-05-20T17:07:31.591Z,20.46
2019-05-20T17:12:33.262Z,20.29
2019-05-20T17:17:34.888Z,20.05
2019-05-20T17:22:36.621Z,19.79
2019-05-20T17:27:38.223Z,19.58
2019-05-20T17:32:39.933Z,19.44
2019-05-20T17:37:41.592Z,19.40
2019-05-20T17:42:43.280Z,19.29
2019-05-20T17:47:45.026Z,19.20
2019-05-20T17:52:46.589Z,19.38
2019-05-20T17:57:48.177Z,19.38
2019-05-20T18:02:49.773Z,19.34
2019-05-20T18:07:51.363Z,19.22
2019-05-20T18:12:53.053Z,19.16
2019-05-20T18:17:54.649Z,19.05
2019-05-20T18:22:56.213Z,18.95
2019-05-20T18:27:57.945Z,18.89
2019-05-20T18:32:59.493Z,18.84
2019-05-20T18:38:01.203Z,18.80
2019-05-20T18:43:03.738Z,18.72
2019-05-20T18:48:05.331Z,18.64
2019-05-20T18:53:07.105Z,18.53
2019-05-20T18:58:08.760Z,18.45
2019-05-20T19:03:10.640Z,18.37
2019-05-20T19:08:12.546Z,18.30
2019-05-20T19:13:14.521Z,18.27
2019-05-20T19:18:16.066Z,18.24
2019-05-20T19:23:17.756Z,18.11
2019-05-20T19:28:19.331Z,18.02
2019-05-20T19:33:21.116Z,18.03
2019-05-20T19:38:22.692Z,18.04
2019-05-20T19:43:24.351Z,18.05
2019-05-20T19:48:25.903Z,18.03
2019-05-20T19:53:27.493Z,17.98
2019-05-20T19:58:29.040Z,17.98
2019-05-20T20:03:30.599Z,17.96
2019-05-20T20:08:32.280Z,17.90
2019-05-20T20:13:34.590Z,17.80
2019-05-20T20:18:36.425Z,17.81
2019-05-20T20:23:38.021Z,17.76
2019-05-20T20:28:39.535Z,17.75
2019-05-20T20:33:41.108Z,17.75
2019-05-20T20:38:42.769Z,17.71
2019-05-20T20:43:44.336Z,17.70
2019-05-20T20:48:45.897Z,17.69
2019-05-20T20:53:47.439Z,17.65
2019-05-20T20:58:49.101Z,17.64
2019-05-20T21:03:50.655Z,17.56
2019-05-20T21:08:52.296Z,17.50
2019-05-20T21:13:53.880Z,17.47
2019-05-20T21:18:55.558Z,17.49
2019-05-20T21:23:57.147Z,17.42
2019-05-20T21:28:58.827Z,17.36
2019-05-20T21:34:00.372Z,17.32
2019-05-20T21:39:01.979Z,17.27
2019-05-20T21:44:03.630Z,17.17
2019-05-20T21:49:05.292Z,17.07
2019-05-20T21:54:06.828Z,17.01
2019-05-20T21:59:08.383Z,16.98
2019-05-20T22:04:09.941Z,16.85
2019-05-20T22:09:11.496Z,16.75
2019-05-20T22:14:13.036Z,16.62
2019-05-20T22:19:14.654Z,16.58
2019-05-20T22:24:16.316Z,16.51
2019-05-20T22:29:17.889Z,16.46
2019-05-20T22:34:19.446Z,16.39
2019-05-20T22:39:21.086Z,16.32
2019-05-20T22:44:22.653Z,16.21
2019-05-20T22:49:24.199Z,16.16
2019-05-20T22:54:25.757Z,16.13
2019-05-20T22:59:27.310Z,16.10
2019-05-20T23:04:28.869Z,16.03
2019-05-20T23:09:30.525Z,16.02
2019-05-20T23:14:32.072Z,15.95
2019-05-20T23:19:33.761Z,15.86
2019-05-20T23:24:35.309Z,15.79
2019-05-20T23:29:36.989Z,15.74
2019-05-20T23:34:38.632Z,15.70
2019-05-20T23:39:40.182Z,15.68
2019-05-20T23:44:41.725Z,15.66
2019-05-20T23:49:43.275Z,15.62
2019-05-20T23:54:44.844Z,15.56
2019-05-20T23:59:46.529Z,15.52
